Time;durP1;ratioP1;P1;durP2;ratioP2;P2;SDS_P1;SDS_P2;PMS_P1;PMS_P2;Temp;Humidity;BMP_temperature;BMP_pressure;BME280_temperature;BME280_humidity;BME280_pressure;Samples;Min_cycle;Max_cycle;Signal;HPM_P1;HPM_P2
2021/12/13 00:00:59;;;;;;;24.20;11.40;;;;;;;;;;5122441;27;20047;-92
2021/12/13 00:03:31;;;;;;;26.85;10.48;;;;;;;;;;5122514;27;20047;-90
2021/12/13 00:06:06;;;;;;;23.65;10.07;;;;;;;;;;5138968;27;20133;-91
2021/12/13 00:08:35;;;;;;;19.80;9.65;;;;;;;;;;5121989;27;20491;-90
2021/12/13 00:11:07;;;;;;;21.85;9.68;;;;;;;;;;5122785;27;20056;-92
2021/12/13 00:13:54;;;;;;;17.88;8.70;;;;;;;;;;5139150;27;20115;-92
2021/12/13 00:16:27;;;;;;;21.30;9.48;;;10.20;99.90;;;;;;5121749;27;20062;-93
2021/12/13 00:18:56;;;;;;;18.10;9.30;;;;;;;;;;5121648;27;20078;-89
2021/12/13 00:21:28;;;;;;;21.58;10.23;;;;;;;;;;5121089;27;20086;-91
2021/12/13 00:23:56;;;;;;;24.65;11.13;;;;;;;;;;5121482;27;20050;-93
2021/12/13 00:26:25;;;;;;;29.45;13.38;;;;;;;;;;5122249;27;20038;-93
2021/12/13 00:28:52;;;;;;;27.98;11.73;;;;;;;;;;5122136;27;20046;-92
2021/12/13 00:31:27;;;;;;;25.85;13.07;;;;;;;;;;5121471;27;20043;-90
2021/12/13 00:33:56;;;;;;;34.88;14.32;;;;;;;;;;5139426;27;20078;-92
2021/12/13 00:36:28;;;;;;;35.78;14.68;;;;;;;;;;5139058;27;20414;-92
2021/12/13 00:38:57;;;;;;;35.22;15.43;;;;;;;;;;5138725;27;20403;-93
2021/12/13 00:41:25;;;;;;;38.08;16.48;;;;;;;;;;5122520;27;20447;-92
2021/12/13 00:44:02;;;;;;;36.60;14.38;;;;;;;;;;5122791;27;20049;-93
2021/12/13 00:46:28;;;;;;;36.40;16.00;;;10.20;99.90;;;;;;5121683;27;20039;-93
2021/12/13 00:48:57;;;;;;;42.00;17.58;;;;;;;;;;5121517;27;20053;-91
2021/12/13 00:51:37;;;;;;;39.25;16.77;;;;;;;;;;5121255;27;20035;-91
2021/12/13 00:54:10;;;;;;;31.52;13.93;;;;;;;;;;5121645;27;20150;-93
2021/12/13 00:57:04;;;;;;;37.70;15.27;;;;;;;;;;5117866;27;20106;-93
2021/12/13 00:59:30;;;;;;;38.70;15.10;;;;;;;;;;5118529;27;20486;-92
2021/12/13 01:02:03;;;;;;;29.90;13.65;;;;;;;;;;5135819;27;20093;-94
2021/12/13 01:04:45;;;;;;;33.38;15.38;;;;;;;;;;5118497;27;20184;-93
2021/12/13 01:07:17;;;;;;;37.35;15.15;;;;;;;;;;5118450;27;20039;-94
2021/12/13 01:09:43;;;;;;;35.38;14.88;;;;;;;;;;5118023;27;20062;-93
2021/12/13 01:12:12;;;;;;;33.10;14.40;;;;;;;;;;5118447;28;20041;-91
2021/12/13 01:14:42;;;;;;;35.55;15.18;;;;;;;;;;5135859;27;20051;-93
2021/12/13 01:17:21;;;;;;;28.08;14.23;;;;;;;;;;5118864;27;20043;-93
2021/12/13 01:19:54;;;;;;;33.92;14.05;;;;;;;;;;5135241;27;20086;-92
2021/12/13 01:22:46;;;;;;;;;;;10.20;99.90;;;;;;5118978;27;20047;-91
2021/12/13 01:27:45;;;;;;;23.52;10.98;;;;;;;;;;5134239;28;20047;-90
2021/12/13 01:30:12;;;;;;;27.60;10.77;;;;;;;;;;5117227;28;20483;-90
2021/12/13 01:32:40;;;;;;;20.60;8.73;;;;;;;;;;5118062;27;20516;-89
2021/12/13 01:35:09;;;;;;;20.08;9.13;;;;;;;;;;5121728;27;20043;-91
2021/12/13 01:37:35;;;;;;;19.38;9.50;;;;;;;;;;5121550;27;20043;-89
2021/12/13 01:40:11;;;;;;;21.42;8.77;;;;;;;;;;5122071;27;20043;-90
2021/12/13 01:42:37;;;;;;;15.63;9.05;;;;;;;;;;5139562;27;20031;-89
2021/12/13 01:45:12;;;;;;;17.17;9.52;;;;;;;;;;5137769;27;20043;-89
2021/12/13 01:47:40;;;;;;;21.20;9.35;;;;;;;;;;5120396;27;20046;-90
2021/12/13 01:50:11;;;;;;;23.08;10.60;;;;;;;;;;5120522;27;20039;-89
2021/12/13 01:52:38;;;;;;;19.65;10.57;;;;;;;;;;5120828;27;20074;-89
2021/12/13 01:55:09;;;;;;;21.63;9.98;;;;;;;;;;5138202;27;20047;-89
2021/12/13 01:57:48;;;;;;;19.75;10.88;;;;;;;;;;5120407;27;20054;-89
2021/12/13 02:00:32;;;;;;;24.35;12.20;;;;;;;;;;5137694;27;20055;-89
2021/12/13 02:02:58;;;;;;;33.53;12.30;;;;;;;;;;5121295;27;20395;-89
2021/12/13 02:05:26;;;;;;;28.38;11.82;;;;;;;;;;5121344;27;20130;-90
2021/12/13 02:07:54;;;;;;;34.75;12.77;;;;;;;;;;5120424;27;20047;-88
2021/12/13 02:10:27;;;;;;;36.92;14.13;;;;;;;;;;5120431;27;20047;-89
2021/12/13 02:12:58;;;;;;;28.35;12.05;;;;;;;;;;5120393;27;20040;-88
2021/12/13 02:18:15;;;;;;;31.58;15.48;;;;;;;;;;5137367;27;20092;-91
2021/12/13 02:20:43;;;;;;;40.30;16.17;;;;;;;;;;5137832;27;20404;-88
2021/12/13 02:23:09;;;;;;;39.00;15.23;;;;;;;;;;5136953;27;20040;-88
2021/12/13 02:25:37;;;;;;;32.42;14.43;;;;;;;;;;5120063;27;20075;-89
2021/12/13 02:28:11;;;;;;;37.47;15.30;;;;;;;;;;5119915;27;20043;-89
2021/12/13 02:30:49;;;;;;;32.85;14.93;;;;;;;;;;5137372;27;20092;-90
2021/12/13 02:33:17;;;;;;;46.20;14.43;;;;;;;;;;5137079;27;20419;-88
2021/12/13 02:35:46;;;;;;;40.78;15.90;;;;;;;;;;5119885;27;20035;-89
2021/12/13 02:38:14;;;;;;;27.08;12.18;;;10.30;99.90;;;;;;5120102;27;20047;-89
2021/12/13 02:40:40;;;;;;;25.98;13.43;;;;;;;;;;5120112;27;20050;-89
2021/12/13 02:43:08;;;;;;;36.55;14.60;;;;;;;;;;5120010;27;20039;-89
2021/12/13 02:45:42;;;;;;;33.17;13.13;;;;;;;;;;5119835;27;20035;-89
2021/12/13 02:48:23;;;;;;;33.00;12.38;;;;;;;;;;5119948;27;20047;-89
2021/12/13 02:51:02;;;;;;;35.83;13.50;;;;;;;;;;5119703;27;20043;-89
2021/12/13 02:53:33;;;;;;;34.08;12.85;;;;;;;;;;5120055;27;20100;-91
2021/12/13 02:55:59;;;;;;;34.80;13.65;;;;;;;;;;5137412;27;20104;-90
2021/12/13 02:58:27;;;;;;;34.72;12.40;;;;;;;;;;5120038;27;20514;-91
2021/12/13 03:00:59;;;;;;;42.22;12.18;;;;;;;;;;5119458;27;20545;-90
2021/12/13 03:03:28;;;;;;;22.98;12.05;;;;;;;;;;5137103;27;20047;-92
2021/12/13 03:05:55;;;;;;;23.08;11.05;;;;;;;;;;5137130;27;20126;-90
2021/12/13 03:08:25;;;;;;;27.02;11.40;;;;;;;;;;5121031;27;20130;-91
2021/12/13 03:10:55;;;;;;;25.83;11.77;;;10.20;99.90;;;;;;5120282;27;20043;-94
2021/12/13 03:13:23;;;;;;;24.77;10.75;;;;;;;;;;5119689;27;20416;-91
2021/12/13 03:15:59;;;;;;;28.98;10.43;;;;;;;;;;5137733;27;20150;-90
2021/12/13 03:18:40;;;;;;;28.95;12.82;;;10.10;99.90;;;;;;5120064;27;20133;-91
2021/12/13 03:21:06;;;;;;;27.27;11.20;;;;;;;;;;5119765;27;20099;-92
2021/12/13 03:23:35;;;;;;;28.65;10.40;;;;;;;;;;5138847;27;20130;-91
2021/12/13 03:26:04;;;;;;;32.10;12.13;;;;;;;;;;5120262;27;20031;-89
2021/12/13 03:29:09;;;;;;;28.95;11.68;;;10.00;99.90;;;;;;5120157;27;20043;-91
2021/12/13 03:31:39;;;;;;;28.08;11.15;;;;;;;;;;5039392;28;20060;-91
2021/12/13 03:34:13;;;;;;;22.95;11.40;;;10.00;99.90;;;;;;5023174;28;20068;-91
2021/12/13 03:36:42;;;;;;;24.25;11.48;;;;;;;;;;5038890;28;20159;-89
2021/12/13 03:39:09;;;;;;;24.33;11.77;;;;;;;;;;5037814;28;20045;-90
2021/12/13 03:41:37;;;;;;;28.83;13.18;;;;;;;;;;5021914;28;20136;-92
2021/12/13 03:44:07;;;;;;;29.85;11.70;;;;;;;;;;5020596;28;20045;-89
2021/12/13 03:46:35;;;;;;;20.23;10.45;;;;;;;;;;5021066;28;20076;-90
2021/12/13 03:49:02;;;;;;;17.27;10.10;;;;;;;;;;5020787;28;20065;-91
2021/12/13 03:51:32;;;;;;;21.33;10.07;;;9.90;99.90;;;;;;5021102;28;20059;-91
2021/12/13 03:53:58;;;;;;;20.20;8.48;;;;;;;;;;5037257;28;20072;-91
2021/12/13 03:56:28;;;;;;;22.98;8.55;;;;;;;;;;5036572;28;20059;-89
2021/12/13 03:58:58;;;;;;;22.55;8.98;;;10.00;99.90;;;;;;5020775;28;20119;-90
2021/12/13 04:01:37;;;;;;;25.48;7.90;;;;;;;;;;5020552;28;20076;-90
2021/12/13 04:04:05;;;;;;;25.00;9.68;;;;;;;;;;5020489;28;20135;-91
2021/12/13 04:06:31;;;;;;;13.38;6.63;;;;;;;;;;5020963;28;20041;-91
2021/12/13 04:08:58;;;;;;;19.80;6.65;;;;;;;;;;5101671;27;20428;-89
2021/12/13 04:11:26;;;;;;;21.90;7.47;;;;;;;;;;5118719;27;20097;-90
2021/12/13 04:13:55;;;;;;;18.38;7.78;;;;;;;;;;5118688;27;20039;-90
2021/12/13 04:16:47;;;;;;;11.02;6.85;;;;;;;;;;5118162;27;20039;-90
2021/12/13 04:19:16;;;;;;;15.27;6.55;;;;;;;;;;5118719;27;20043;-90
2021/12/13 04:21:57;;;;;;;14.18;5.78;;;;;;;;;;5119279;27;20473;-90
2021/12/13 04:24:37;;;;;;;11.07;5.45;;;;;;;;;;5118277;27;20096;-89
2021/12/13 04:27:17;;;;;;;13.60;5.28;;;;;;;;;;5117600;27;20038;-89
2021/12/13 04:29:44;;;;;;;8.30;4.95;;;;;;;;;;5117605;27;20107;-89
2021/12/13 04:32:14;;;;;;;13.40;5.55;;;;;;;;;;5117870;27;20039;-88
2021/12/13 04:34:42;;;;;;;15.27;6.07;;;;;;;;;;5134752;27;20050;-89
2021/12/13 04:37:11;;;;;;;8.77;4.85;;;;;;;;;;5118786;27;20043;-88
2021/12/13 04:39:38;;;;;;;11.63;4.60;;;;;;;;;;5117738;27;20496;-89
2021/12/13 04:42:09;;;;;;;18.00;5.13;;;;;;;;;;5134859;27;20469;-90
2021/12/13 04:44:37;;;;;;;13.65;4.80;;;9.80;99.90;;;;;;5117817;27;20043;-89
2021/12/13 04:47:06;;;;;;;9.48;4.10;;;;;;;;;;5117416;27;20495;-91
2021/12/13 04:49:33;;;;;;;10.18;4.18;;;;;;;;;;5118026;27;20043;-90
2021/12/13 04:52:00;;;;;;;12.48;3.95;;;;;;;;;;5118157;27;20043;-89
2021/12/13 04:54:28;;;;;;;8.90;4.78;;;;;;;;;;5118314;27;20453;-90
2021/12/13 04:56:54;;;;;;;9.45;3.88;;;;;;;;;;5136016;27;20078;-94
2021/12/13 04:59:25;;;;;;;5.95;4.00;;;;;;;;;;5119419;27;20065;-90
2021/12/13 05:01:53;;;;;;;9.88;3.97;;;;;;;;;;5135835;27;20050;-90
2021/12/13 05:04:20;;;;;;;10.25;3.17;;;9.70;99.90;;;;;;5136232;27;20126;-94
2021/12/13 05:06:47;;;;;;;7.63;3.28;;;;;;;;;;5118196;28;20118;-91
2021/12/13 05:09:15;;;;;;;7.57;2.95;;;;;;;;;;5118798;27;20051;-93
2021/12/13 05:11:44;;;;;;;7.00;2.97;;;;;;;;;;5136713;27;20051;-93
2021/12/13 05:14:11;;;;;;;6.47;3.22;;;;;;;;;;5119038;27;20126;-94
2021/12/13 05:16:41;;;;;;;5.50;2.72;;;;;;;;;;5118669;27;20043;-91
2021/12/13 05:19:08;;;;;;;6.95;3.17;;;;;;;;;;5117185;27;20106;-90
2021/12/13 05:21:34;;;;;;;8.80;3.17;;;;;;;;;;5117561;28;20061;-91
2021/12/13 05:24:02;;;;;;;5.40;3.40;;;;;;;;;;5134316;27;20047;-89
2021/12/13 05:26:32;;;;;;;7.82;4.03;;;;;;;;;;5133735;27;20050;-92
2021/12/13 05:29:00;;;;;;;6.13;3.08;;;;;;;;;;5117017;28;20051;-89
2021/12/13 05:31:27;;;;;;;7.20;3.92;;;;;;;;;;5133885;28;20126;-89
2021/12/13 05:33:57;;;;;;;6.07;4.22;;;9.70;99.90;;;;;;5117589;28;20043;-90
2021/12/13 05:36:25;;;;;;;9.88;4.38;;;;;;;;;;5117157;28;20121;-89
2021/12/13 05:38:59;;;;;;;7.82;4.63;;;;;;;;;;5117149;28;20567;-89
2021/12/13 05:41:27;;;;;;;9.68;4.90;;;9.60;99.90;;;;;;5118012;28;20093;-88
2021/12/13 05:43:55;;;;;;;7.68;4.68;;;;;;;;;;5116732;28;20134;-89
2021/12/13 05:46:32;;;;;;;9.65;4.80;;;;;;;;;;5117001;28;20039;-91
2021/12/13 05:49:02;;;;;;;7.47;5.10;;;;;;;;;;5117849;28;20414;-90
2021/12/13 05:51:36;;;;;;;7.30;5.18;;;;;;;;;;5117311;28;20483;-91
2021/12/13 05:54:05;;;;;;;;;;;9.50;99.90;;;;;;5135409;28;20491;-90
2021/12/13 05:56:48;;;;;;;8.82;4.90;;;;;;;;;;5117147;28;19920;-91
2021/12/13 05:59:19;;;;;;;11.35;5.18;;;9.60;99.90;;;;;;5117313;28;20050;-91
2021/12/13 06:02:00;;;;;;;8.48;4.93;;;;;;;;;;5116629;28;20376;-90
2021/12/13 06:04:44;;;;;;;9.65;5.90;;;9.50;99.90;;;;;;5116924;28;20035;-90
2021/12/13 06:07:13;;;;;;;10.40;5.20;;;;;;;;;;5134513;28;20512;-89
2021/12/13 06:09:48;;;;;;;11.50;5.43;;;;;;;;;;5118477;28;20035;-91
2021/12/13 06:12:31;;;;;;;9.02;5.60;;;9.60;99.90;;;;;;5118160;28;20051;-92
2021/12/13 06:15:03;;;;;;;14.35;6.18;;;;;;;;;;5136065;28;20503;-91
2021/12/13 06:17:31;;;;;;;8.88;5.95;;;;;;;;;;5101495;28;20039;-93
2021/12/13 06:19:59;;;;;;;9.07;5.72;;;;;;;;;;5119994;27;20039;-90
2021/12/13 06:22:27;;;;;;;12.13;5.47;;;;;;;;;;5137820;27;20062;-92
2021/12/13 06:24:53;;;;;;;10.75;5.75;;;;;;;;;;5120122;27;20071;-92
2021/12/13 06:27:21;;;;;;;10.23;6.22;;;;;;;;;;5120832;27;20035;-91
2021/12/13 06:29:58;;;;;;;10.25;6.53;;;;;;;;;;5120807;27;20039;-92
2021/12/13 06:32:41;;;;;;;12.38;6.07;;;9.80;99.90;;;;;;5120696;27;20495;-93
2021/12/13 06:35:30;;;;;;;14.85;6.38;;;9.30;99.90;;;;;;5121036;27;20039;-92
2021/12/13 06:37:58;;;;;;;10.85;7.15;;;;;;;;;;5138464;27;20039;-92
2021/12/13 06:40:31;;;;;;;10.82;6.78;;;9.50;99.90;;;;;;5120801;27;20560;-91
2021/12/13 06:43:00;;;;;;;15.05;7.72;;;9.40;99.90;;;;;;5121214;27;20070;-93
2021/12/13 06:45:31;;;;;;;11.93;6.45;;;;;;;;;;5120858;27;20049;-93
2021/12/13 06:47:58;;;;;;;15.23;7.18;;;;;;;;;;5120942;27;20035;-93
2021/12/13 06:50:26;;;;;;;10.10;6.65;;;;;;;;;;5138056;27;20077;-92
2021/12/13 06:52:52;;;;;;;25.00;7.60;;;;;;;;;;5120490;27;20043;-92
2021/12/13 06:55:20;;;;;;;10.52;6.80;;;;;;;;;;5120963;27;20075;-91
2021/12/13 06:57:54;;;;;;;12.38;6.95;;;9.50;99.90;;;;;;5136874;27;20047;-88
2021/12/13 07:00:20;;;;;;;17.88;9.00;;;;;;;;;;5120630;27;20138;-88
2021/12/13 07:02:49;;;;;;;15.90;7.07;;;;;;;;;;5120722;27;20074;-88
2021/12/13 07:05:18;;;;;;;11.82;7.03;;;;;;;;;;5137894;27;20051;-88
2021/12/13 07:07:50;;;;;;;13.32;7.00;;;;;;;;;;5137367;27;20046;-89
2021/12/13 07:10:27;;;;;;;10.35;6.20;;;;;;;;;;5119424;27;20484;-90
2021/12/13 07:12:57;;;;;;;11.73;7.18;;;9.40;99.90;;;;;;5118994;27;20043;-89
2021/12/13 07:15:23;;;;;;;13.82;7.10;;;;;;;;;;5119540;27;20131;-88
2021/12/13 07:18:02;;;;;;;13.95;7.13;;;9.60;99.90;;;;;;5120415;27;20050;-89
2021/12/13 07:20:35;;;;;;;13.73;7.47;;;;;;;;;;5119389;27;20129;-89
2021/12/13 07:23:01;;;;;;;11.45;6.53;;;;;;;;;;5119084;27;20043;-88
2021/12/13 07:25:34;;;;;;;9.35;6.35;;;;;;;;;;5118552;27;20053;-90
2021/12/13 07:28:00;;;;;;;18.55;7.43;;;;;;;;;;5119010;27;20043;-91
2021/12/13 07:30:29;;;;;;;11.35;7.53;;;;;;;;;;5135377;27;20042;-89
2021/12/13 07:32:59;;;;;;;13.80;7.72;;;;;;;;;;5118873;27;20049;-90
2021/12/13 07:35:30;;;;;;;18.05;7.60;;;;;;;;;;5120145;27;20054;-91
2021/12/13 07:38:16;;;;;;;11.45;7.20;;;9.40;99.90;;;;;;5120259;27;20043;-89
2021/12/13 07:40:46;;;;;;;12.13;7.03;;;9.20;99.90;;;;;;5101672;27;20191;-91
2021/12/13 07:43:15;;;;;;;12.52;8.05;;;;;;;;;;5135824;27;20054;-90
2021/12/13 07:45:43;;;;;;;12.80;8.73;;;;;;;;;;5119053;27;20050;-89
2021/12/13 07:48:12;;;;;;;12.35;7.70;;;;;;;;;;5135852;27;20107;-89
2021/12/13 07:50:39;;;;;;;10.90;7.53;;;;;;;;;;5120068;27;20051;-88
2021/12/13 07:53:07;;;;;;;20.17;8.75;;;;;;;;;;5118231;27;20039;-90
2021/12/13 07:55:33;;;;;;;12.88;8.13;;;;;;;;;;5135664;27;20039;-89
2021/12/13 07:58:02;;;;;;;15.20;7.78;;;;;;;;;;5118684;27;20518;-90
2021/12/13 08:00:34;;;;;;;15.27;8.23;;;;;;;;;;5118668;27;20413;-90
2021/12/13 08:03:14;;;;;;;16.75;10.98;;;9.30;99.90;;;;;;5118662;27;20107;-89
2021/12/13 08:05:43;;;;;;;15.00;9.70;;;;;;;;;;5129515;27;20067;-89
2021/12/13 08:08:15;;;;;;;13.93;10.15;;;;;;;;;;5135855;27;20046;-89
2021/12/13 08:10:44;;;;;;;16.63;9.43;;;9.40;99.90;;;;;;5118214;27;20054;-91
2021/12/13 08:13:17;;;;;;;13.25;9.45;;;;;;;;;;5135050;27;20042;-91
2021/12/13 08:15:49;;;;;;;14.82;9.13;;;;;;;;;;5117955;27;20407;-91
2021/12/13 08:18:28;;;;;;;15.80;9.80;;;;;;;;;;5136600;27;20503;-90
2021/12/13 08:20:57;;;;;;;15.80;9.88;;;;;;;;;;5135698;27;20043;-91
2021/12/13 08:23:25;;;;;;;15.35;9.32;;;;;;;;;;5135696;27;20039;-91
2021/12/13 08:25:54;;;;;;;17.35;10.23;;;9.30;99.90;;;;;;5135767;27;20122;-91
2021/12/13 08:28:30;;;;;;;15.77;10.18;;;;;;;;;;5118514;27;20043;-89
2021/12/13 08:30:58;;;;;;;15.80;10.60;;;;;;;;;;5135604;27;20148;-90
2021/12/13 08:33:35;;;;;;;20.33;11.93;;;;;;;;;;5135262;27;20046;-91
2021/12/13 08:36:03;;;;;;;15.80;10.57;;;;;;;;;;5135476;27;20544;-91
2021/12/13 08:38:39;;;;;;;19.70;11.43;;;;;;;;;;5118442;27;20039;-89
2021/12/13 08:41:25;;;;;;;15.73;11.30;;;;;;;;;;5117948;27;20039;-89
2021/12/13 08:43:54;;;;;;;22.42;12.52;;;;;;;;;;5135095;27;20104;-89
2021/12/13 08:46:27;;;;;;;15.95;11.00;;;;;;;;;;5135111;27;20081;-91
2021/12/13 08:48:53;;;;;;;20.45;11.00;;;;;;;;;;5134909;27;20382;-91
2021/12/13 08:51:22;;;;;;;19.65;11.48;;;;;;;;;;5118229;27;20043;-91
2021/12/13 08:53:58;;;;;;;17.33;11.68;;;;;;;;;;5134729;27;20521;-91
2021/12/13 08:56:25;;;;;;;17.50;11.45;;;;;;;;;;5134992;27;20134;-90
2021/12/13 08:58:58;;;;;;;18.98;12.07;;;;;;;;;;5136349;27;20072;-92
2021/12/13 09:01:28;;;;;;;;;;;9.50;99.90;;;;;;5118053;27;20046;-91
2021/12/13 09:03:54;;;;;;;16.73;11.20;;;9.40;99.90;;;;;;5118730;27;19923;-90
2021/12/13 09:06:25;;;;;;;23.27;13.50;;;;;;;;;;5119374;27;20050;-90
2021/12/13 09:09:15;;;;;;;17.10;11.95;;;9.60;99.90;;;;;;5135737;27;20528;-90
2021/12/13 09:11:55;;;;;;;20.58;11.93;;;;;;;;;;5118725;27;20093;-89
2021/12/13 09:14:21;;;;;;;17.48;12.32;;;;;;;;;;5133993;27;20051;-89
2021/12/13 09:17:07;;;;;;;20.20;13.00;;;;;;;;;;5117191;27;20137;-91
2021/12/13 09:19:47;;;;;;;26.65;12.80;;;9.60;99.90;;;;;;5117305;27;20050;-88
2021/12/13 09:22:22;;;;;;;16.77;12.07;;;;;;;;;;5117338;28;20046;-89
2021/12/13 09:24:51;;;;;;;18.85;12.07;;;;;;;;;;5134066;27;20047;-89
2021/12/13 09:27:25;;;;;;;20.95;12.77;;;;;;;;;;5117112;27;20534;-88
2021/12/13 09:30:06;;;;;;;19.05;12.45;;;9.40;99.90;;;;;;5134228;28;20074;-90
2021/12/13 09:32:41;;;;;;;23.75;12.60;;;;;;;;;;5134387;28;20040;-91
2021/12/13 09:35:31;;;;;;;19.80;12.70;;;9.60;99.90;;;;;;5134216;28;20088;-89
2021/12/13 09:38:01;;;;;;;18.95;13.85;;;;;;;;;;5133996;28;20415;-90
2021/12/13 09:40:53;;;;;;;21.02;13.10;;;;;;;;;;5134405;28;20407;-89
2021/12/13 09:43:21;;;;;;;19.88;12.80;;;9.60;99.90;;;;;;5035558;28;20049;-90
2021/12/13 09:45:52;;;;;;;18.70;11.80;;;;;;;;;;5036149;28;20053;-90
2021/12/13 09:48:24;;;;;;;20.38;12.18;;;;;;;;;;5019179;28;20048;-89
2021/12/13 09:50:55;;;;;;;18.00;11.50;;;9.60;99.90;;;;;;5019109;28;20398;-90
2021/12/13 09:53:26;;;;;;;19.92;11.02;;;9.60;99.90;;;;;;5036192;28;20056;-91
2021/12/13 09:55:52;;;;;;;19.83;12.52;;;;;;;;;;5023256;28;20051;-90
2021/12/13 09:58:22;;;;;;;20.25;12.05;;;9.70;99.90;;;;;;5022744;28;20143;-89
2021/12/13 10:00:51;;;;;;;18.67;12.45;;;;;;;;;;5038697;28;20450;-89
2021/12/13 10:03:17;;;;;;;16.70;11.60;;;;;;;;;;5022482;28;20059;-89
2021/12/13 10:05:47;;;;;;;19.77;11.65;;;9.80;99.90;;;;;;5022429;28;20401;-91
2021/12/13 10:08:19;;;;;;;18.23;11.48;;;;;;;;;;5039657;28;20117;-91
2021/12/13 10:10:48;;;;;;;14.57;11.20;;;;;;;;;;5039405;28;20394;-91
2021/12/13 10:13:21;;;;;;;14.73;10.40;;;9.50;99.90;;;;;;5022876;28;20573;-90
2021/12/13 10:15:52;;;;;;;17.63;11.23;;;;;;;;;;5022417;28;20045;-88
2021/12/13 10:18:23;;;;;;;16.95;10.88;;;9.70;99.90;;;;;;5022716;28;20433;-89
2021/12/13 10:20:55;;;;;;;21.45;11.45;;;;;;;;;;5118478;27;20147;-89
2021/12/13 10:23:25;;;;;;;14.15;10.75;;;9.90;99.90;;;;;;5120514;27;20184;-90
2021/12/13 10:25:52;;;;;;;15.93;11.50;;;;;;;;;;5120806;27;20046;-91
2021/12/13 10:28:20;;;;;;;14.10;9.85;;;;;;;;;;5120529;27;20037;-91
2021/12/13 10:30:57;;;;;;;15.02;11.27;;;9.70;99.90;;;;;;5120487;27;20053;-90
2021/12/13 10:33:25;;;;;;;19.65;11.55;;;9.80;99.90;;;;;;5137933;27;20043;-89
2021/12/13 10:35:53;;;;;;;17.27;9.95;;;;;;;;;;5120441;27;20043;-88
2021/12/13 10:38:27;;;;;;;28.23;13.00;;;9.70;99.90;;;;;;5120642;27;20039;-90
2021/12/13 10:40:56;;;;;;;16.33;10.18;;;9.90;99.90;;;;;;5121387;27;20373;-90
2021/12/13 10:43:25;;;;;;;15.07;10.70;;;;;;;;;;5121628;27;20081;-90
2021/12/13 10:45:58;;;;;;;15.32;10.98;;;9.90;99.90;;;;;;5138612;27;20132;-89
2021/12/13 10:48:30;;;;;;;15.05;9.10;;;10.00;99.90;;;;;;5130503;27;20560;-90
2021/12/13 10:51:09;;;;;;;17.40;10.82;;;9.80;99.90;;;;;;5120080;27;20399;-88
2021/12/13 10:53:38;;;;;;;13.93;9.00;;;9.80;99.90;;;;;;5136739;27;20039;-88
2021/12/13 10:56:10;;;;;;;18.73;10.98;;;9.80;99.90;;;;;;5120242;27;20095;-88
2021/12/13 10:58:43;;;;;;;15.40;10.35;;;9.70;99.90;;;;;;5136806;27;20138;-88
2021/12/13 11:01:30;;;;;;;14.65;9.90;;;9.90;99.90;;;;;;5119351;27;20395;-90
2021/12/13 11:03:59;;;;;;;16.83;10.98;;;9.80;99.90;;;;;;5136963;27;20050;-89
2021/12/13 11:06:26;;;;;;;16.30;9.82;;;9.90;99.90;;;;;;5118764;27;20388;-90
2021/12/13 11:08:52;;;;;;;17.85;10.40;;;;;;;;;;5136291;27;20473;-88
2021/12/13 11:11:21;;;;;;;16.77;10.60;;;;;;;;;;5137711;27;20066;-89
2021/12/13 11:13:51;;;;;;;15.15;9.98;;;10.00;99.90;;;;;;5119315;27;20051;-89
2021/12/13 11:16:25;;;;;;;13.90;9.77;;;9.90;99.90;;;;;;5119007;27;20035;-88
2021/12/13 11:18:51;;;;;;;19.38;10.95;;;;;;;;;;5112863;27;20043;-89
2021/12/13 11:21:21;;;;;;;16.92;9.77;;;;;;;;;;5119234;27;20496;-88
2021/12/13 11:23:47;;;;;;;20.92;10.75;;;;;;;;;;5119344;27;20099;-88
2021/12/13 11:26:15;;;;;;;17.40;10.00;;;;;;;;;;5119274;27;20469;-88
2021/12/13 11:28:41;;;;;;;13.50;9.65;;;;;;;;;;5118718;27;20472;-88
2021/12/13 11:31:30;;;;;;;16.77;11.52;;;9.90;99.90;;;;;;5117955;27;20039;-88
2021/12/13 11:34:03;;;;;;;17.63;10.68;;;;;;;;;;5118406;27;20043;-88
2021/12/13 11:36:48;;;;;;;15.30;9.93;;;;;;;;;;5118190;27;20554;-88
2021/12/13 11:39:26;;;;;;;11.77;9.30;;;;;;;;;;5118804;27;20269;-88
2021/12/13 11:42:24;;;;;;;16.58;10.45;;;9.90;99.90;;;;;;5135113;27;20042;-88
2021/12/13 11:45:09;;;;;;;14.23;9.88;;;;;;;;;;5135433;27;20035;-88
2021/12/13 11:47:41;;;;;;;17.20;10.45;;;;;;;;;;5118261;27;20039;-88
2021/12/13 11:50:44;;;;;;;15.68;10.05;;;10.10;99.90;;;;;;5135889;27;20074;-87
2021/12/13 11:53:29;;;;;;;18.08;9.60;;;10.10;99.90;;;;;;5118302;27;20455;-88
2021/12/13 11:55:55;;;;;;;14.05;8.75;;;;;;;;;;5135681;27;20073;-89
2021/12/13 11:58:50;;;;;;;13.25;8.95;;;10.10;99.90;;;;;;5118166;27;20101;-88
2021/12/13 12:01:22;;;;;;;16.67;8.82;;;;;;;;;;5136069;27;20082;-88
2021/12/13 12:03:58;;;;;;;14.73;9.23;;;10.00;99.90;;;;;;5118936;27;20051;-88
2021/12/13 12:06:42;;;;;;;16.40;9.63;;;;;;;;;;5135553;27;20483;-89
2021/12/13 12:09:45;;;;;;;16.42;9.70;;;10.00;99.90;;;;;;5135696;27;20051;-89
2021/12/13 12:12:49;;;;;;;18.30;11.30;;;10.00;99.90;;;;;;5117381;27;20050;-89
2021/12/13 12:15:15;;;;;;;15.30;9.00;;;;;;;;;;5117967;27;20081;-90
2021/12/13 12:17:41;;;;;;;14.52;9.55;;;10.20;99.90;;;;;;5117511;27;20039;-89
2021/12/13 12:20:14;;;;;;;18.98;10.52;;;10.00;99.90;;;;;;5134911;27;20046;-90
2021/12/13 12:22:53;;;;;;;21.10;11.00;;;9.80;99.90;;;;;;5117447;27;20131;-90
2021/12/13 12:25:26;;;;;;;19.92;11.88;;;10.00;99.90;;;;;;5118356;27;20420;-89
2021/12/13 12:27:57;;;;;;;17.35;12.02;;;10.10;99.90;;;;;;5135102;27;20050;-90
2021/12/13 12:30:25;;;;;;;18.33;11.07;;;;;;;;;;5117650;27;20043;-90
2021/12/13 12:32:55;;;;;;;17.80;10.80;;;9.90;99.90;;;;;;5118151;27;20091;-90
2021/12/13 12:35:30;;;;;;;17.13;11.30;;;9.90;99.90;;;;;;5118341;27;20134;-90
2021/12/13 12:37:56;;;;;;;17.05;10.27;;;;;;;;;;5134650;27;20171;-89
2021/12/13 12:40:43;;;;;;;16.67;10.77;;;10.00;99.90;;;;;;5117903;27;20066;-90
2021/12/13 12:43:15;;;;;;;22.20;10.75;;;9.80;99.90;;;;;;5117510;27;20139;-89
2021/12/13 12:45:48;;;;;;;19.80;9.98;;;;;;;;;;5134802;27;20043;-90
2021/12/13 12:48:32;;;;;;;15.15;8.85;;;9.90;99.90;;;;;;5118584;27;20047;-90
2021/12/13 12:51:04;;;;;;;20.75;9.73;;;;;;;;;;5134784;27;20039;-89
2021/12/13 12:53:30;;;;;;;21.73;10.10;;;;;;;;;;5134387;27;20048;-90
2021/12/13 12:55:58;;;;;;;17.13;9.30;;;;;;;;;;5118601;27;20039;-89
2021/12/13 12:58:32;;;;;;;16.13;9.05;;;9.90;99.90;;;;;;5119044;27;20051;-90
2021/12/13 13:01:02;;;;;;;14.77;9.03;;;9.80;99.90;;;;;;5135869;27;20059;-88
2021/12/13 13:03:32;;;;;;;16.30;9.70;;;9.70;99.90;;;;;;5117684;27;20415;-89
2021/12/13 13:06:23;;;;;;;13.68;9.30;;;10.00;99.90;;;;;;5134537;27;20091;-86
2021/12/13 13:08:52;;;;;;;17.60;9.25;;;;;;;;;;5134418;27;20487;-87
2021/12/13 13:11:27;;;;;;;15.88;9.57;;;;;;;;;;5134887;27;20060;-87
2021/12/13 13:14:19;;;;;;;15.57;9.85;;;;;;;;;;5135544;27;20053;-87
2021/12/13 13:16:51;;;;;;;15.68;10.20;;;;;;;;;;5129765;27;20086;-87
2021/12/13 13:19:34;;;;;;;18.77;10.80;;;;;;;;;;5117136;28;20054;-89
2021/12/13 13:22:10;;;;;;;17.25;9.85;;;10.00;99.90;;;;;;5134164;27;20047;-88
2021/12/13 13:24:44;;;;;;;16.58;9.43;;;;;;;;;;5117389;28;20047;-88
2021/12/13 13:27:10;;;;;;;;;;;;;;;;;;5134931;27;20126;-88
2021/12/13 13:29:36;;;;;;;19.00;10.27;;;;;;;;;;5115598;28;19977;-87
2021/12/13 13:32:05;;;;;;;20.75;9.38;;;10.20;99.90;;;;;;5116536;28;20388;-86
2021/12/13 13:34:31;;;;;;;14.05;9.48;;;;;;;;;;5116315;28;20050;-87
2021/12/13 13:37:05;;;;;;;14.68;8.20;;;10.30;99.90;;;;;;5116566;28;20039;-87
2021/12/13 13:39:49;;;;;;;13.30;9.18;;;9.90;99.90;;;;;;5117227;28;20043;-87
2021/12/13 13:42:15;;;;;;;13.68;9.10;;;;;;;;;;5133944;28;20035;-87
2021/12/13 13:44:52;;;;;;;18.25;9.02;;;10.20;99.90;;;;;;5117035;28;20044;-87
2021/12/13 13:47:31;;;;;;;10.80;8.85;;;10.30;99.90;;;;;;5133862;28;20495;-88
2021/12/13 13:49:59;;;;;;;18.25;9.63;;;;;;;;;;5134191;28;20103;-89
2021/12/13 13:52:27;;;;;;;14.80;9.23;;;;;;;;;;5119004;28;20036;-88
2021/12/13 13:54:56;;;;;;;20.42;10.48;;;;;;;;;;5118565;28;20079;-86
2021/12/13 13:57:25;;;;;;;15.55;9.73;;;10.20;99.90;;;;;;5134849;28;20047;-87
2021/12/13 13:59:52;;;;;;;17.13;9.32;;;10.10;99.90;;;;;;5117283;28;20046;-87
2021/12/13 14:02:36;;;;;;;16.02;9.27;;;10.20;99.90;;;;;;5115879;28;20042;-87
2021/12/13 14:05:05;;;;;;;;;;;10.10;99.90;;;;;;5116631;28;20159;-87
2021/12/13 14:07:32;;;;;;;13.18;8.30;;;10.30;99.90;;;;;;5116570;28;20379;-86
2021/12/13 14:10:03;;;;;;;15.05;9.43;;;10.20;99.90;;;;;;5134169;28;20058;-87
2021/12/13 14:12:35;;;;;;;15.02;9.85;;;10.10;99.90;;;;;;5136041;28;20418;-86
2021/12/13 14:15:14;;;;;;;19.17;10.13;;;10.20;99.90;;;;;;5117399;28;20050;-87
2021/12/13 14:17:44;;;;;;;17.05;9.88;;;10.10;99.90;;;;;;5117307;28;20086;-86
2021/12/13 14:20:31;;;;;;;15.80;9.68;;;10.20;99.90;;;;;;5135141;28;20043;-86
2021/12/13 14:23:15;;;;;;;17.90;9.40;;;10.20;99.90;;;;;;5117257;28;20479;-87
2021/12/13 14:25:43;;;;;;;17.17;9.77;;;;;;;;;;5116153;28;20043;-87